Hora  uma hora 31 minutos

Coordenadas 993

Enviada em 14 de Fevereiro de 2018

Registrada em Julho 2009

-
-
193 m
111 m
0
3,9
7,9
15,79 km

Visualizado 80 vezes, baixado 1 vezes

perto de Falls View, Ontàrio (Canada)

Tempo durante a corrida: KIAG 131753Z 27013G18KT 10SM FEW050 SCT070 SCT090 BKN150 23/07 A2993 RMK AO2 SLP134 8/170 T02280072 10233 20156 58011. A meteorologia não poderia ser melhor. Estou a começar a recuperar e isso deve-se à temperatura. Para a descrição do que foi este dia maravilhoso, consultar http://www.facebook.com/note.php?note_id=107058281979 As fotos deste dia no Facebook http://www.facebook.com/album.php?aid=2017285&id=1190643879 A descrição do dia em Niagara http://www.facebook.com/carlos.soares?ref=profile#/carlos.soares?v=app_2347471856&ref=profile

Comentários

    Você pode ou esta trilha